sensor_id;sensor_type;location;lat;lon;timestamp;temperature;humidity
67147;DHT22;54061;52.036;5.558;2022-09-09T00:04:40;15.40;95.00
67147;DHT22;54061;52.036;5.558;2022-09-09T00:15:20;15.30;94.00
67147;DHT22;54061;52.036;5.558;2022-09-09T00:17:51;15.30;93.50
67147;DHT22;54061;52.036;5.558;2022-09-09T00:20:29;15.30;93.40
67147;DHT22;54061;52.036;5.558;2022-09-09T00:23:12;15.30;93.70
67147;DHT22;54061;52.036;5.558;2022-09-09T00:28:26;15.30;95.00
67147;DHT22;54061;52.036;5.558;2022-09-09T00:30:52;15.30;93.20
67147;DHT22;54061;52.036;5.558;2022-09-09T00:33:20;15.30;93.40
67147;DHT22;54061;52.036;5.558;2022-09-09T00:38:20;15.20;93.30
67147;DHT22;54061;52.036;5.558;2022-09-09T00:43:50;15.20;96.70
67147;DHT22;54061;52.036;5.558;2022-09-09T00:46:52;15.10;94.50
67147;DHT22;54061;52.036;5.558;2022-09-09T00:52:30;15.10;96.30
67147;DHT22;54061;52.036;5.558;2022-09-09T00:57:36;15.00;95.40
67147;DHT22;54061;52.036;5.558;2022-09-09T01:00:23;15.00;94.00
67147;DHT22;54061;52.036;5.558;2022-09-09T01:05:54;15.00;95.60
67147;DHT22;54061;52.036;5.558;2022-09-09T01:10:54;14.90;93.40
67147;DHT22;54061;52.036;5.558;2022-09-09T01:13:26;14.90;93.80
67147;DHT22;54061;52.036;5.558;2022-09-09T01:15:53;14.90;93.50
67147;DHT22;54061;52.036;5.558;2022-09-09T01:18:23;14.90;93.60
67147;DHT22;54061;52.036;5.558;2022-09-09T01:26:46;14.90;95.50
67147;DHT22;54061;52.036;5.558;2022-09-09T01:29:17;14.80;94.90
67147;DHT22;54061;52.036;5.558;2022-09-09T01:31:56;14.80;94.20
67147;DHT22;54061;52.036;5.558;2022-09-09T01:34:44;14.80;95.00
67147;DHT22;54061;52.036;5.558;2022-09-09T01:37:10;14.70;93.90
67147;DHT22;54061;52.036;5.558;2022-09-09T01:39:39;14.70;94.20
67147;DHT22;54061;52.036;5.558;2022-09-09T01:42:09;14.70;94.10
67147;DHT22;54061;52.036;5.558;2022-09-09T01:44:38;14.70;94.50
67147;DHT22;54061;52.036;5.558;2022-09-09T01:47:04;14.60;94.10
67147;DHT22;54061;52.036;5.558;2022-09-09T01:49:30;14.60;94.00
67147;DHT22;54061;52.036;5.558;2022-09-09T01:51:58;14.60;94.30
67147;DHT22;54061;52.036;5.558;2022-09-09T01:54:27;14.60;94.40
67147;DHT22;54061;52.036;5.558;2022-09-09T01:57:24;14.60;94.50
67147;DHT22;54061;52.036;5.558;2022-09-09T02:07:50;14.50;95.60
67147;DHT22;54061;52.036;5.558;2022-09-09T02:10:26;14.40;94.60
67147;DHT22;54061;52.036;5.558;2022-09-09T02:13:12;14.40;94.90
67147;DHT22;54061;52.036;5.558;2022-09-09T02:15:58;14.40;94.70
67147;DHT22;54061;52.036;5.558;2022-09-09T02:21:02;14.40;95.20
67147;DHT22;54061;52.036;5.558;2022-09-09T02:23:28;14.40;94.20
67147;DHT22;54061;52.036;5.558;2022-09-09T02:25:56;14.40;94.40
67147;DHT22;54061;52.036;5.558;2022-09-09T02:28:25;14.30;94.80
67147;DHT22;54061;52.036;5.558;2022-09-09T02:30:52;14.30;95.20
67147;DHT22;54061;52.036;5.558;2022-09-09T02:33:25;14.20;95.30
67147;DHT22;54061;52.036;5.558;2022-09-09T02:35:52;14.20;95.40
67147;DHT22;54061;52.036;5.558;2022-09-09T02:38:25;14.20;95.30
67147;DHT22;54061;52.036;5.558;2022-09-09T02:40:51;14.20;95.90
67147;DHT22;54061;52.036;5.558;2022-09-09T02:43:17;14.20;94.80
67147;DHT22;54061;52.036;5.558;2022-09-09T02:46:00;14.20;95.60
67147;DHT22;54061;52.036;5.558;2022-09-09T02:48:39;14.10;96.10
67147;DHT22;54061;52.036;5.558;2022-09-09T02:51:44;14.10;96.80
67147;DHT22;54061;52.036;5.558;2022-09-09T02:54:28;14.10;98.40
67147;DHT22;54061;52.036;5.558;2022-09-09T02:57:10;14.00;96.30
67147;DHT22;54061;52.036;5.558;2022-09-09T02:59:36;14.00;95.90
67147;DHT22;54061;52.036;5.558;2022-09-09T03:02:03;14.00;96.00
67147;DHT22;54061;52.036;5.558;2022-09-09T03:04:28;14.00;95.30
67147;DHT22;54061;52.036;5.558;2022-09-09T03:06:55;13.90;95.40
67147;DHT22;54061;52.036;5.558;2022-09-09T03:09:21;13.90;95.80
67147;DHT22;54061;52.036;5.558;2022-09-09T03:11:46;13.90;95.80
67147;DHT22;54061;52.036;5.558;2022-09-09T03:14:12;13.90;95.60
67147;DHT22;54061;52.036;5.558;2022-09-09T03:16:37;13.90;95.50
67147;DHT22;54061;52.036;5.558;2022-09-09T03:19:03;13.90;95.50
67147;DHT22;54061;52.036;5.558;2022-09-09T03:21:29;13.90;95.50
67147;DHT22;54061;52.036;5.558;2022-09-09T03:23:54;13.90;95.50
67147;DHT22;54061;52.036;5.558;2022-09-09T03:26:20;13.90;95.70
67147;DHT22;54061;52.036;5.558;2022-09-09T03:28:45;13.90;95.80
67147;DHT22;54061;52.036;5.558;2022-09-09T03:31:11;13.80;95.80
67147;DHT22;54061;52.036;5.558;2022-09-09T03:33:37;13.80;96.00
67147;DHT22;54061;52.036;5.558;2022-09-09T03:36:04;13.80;96.10
67147;DHT22;54061;52.036;5.558;2022-09-09T03:38:29;13.80;95.90
67147;DHT22;54061;52.036;5.558;2022-09-09T03:40:56;13.80;95.90
67147;DHT22;54061;52.036;5.558;2022-09-09T03:43:23;13.80;96.40
67147;DHT22;54061;52.036;5.558;2022-09-09T03:45:49;13.80;96.50
67147;DHT22;54061;52.036;5.558;2022-09-09T03:48:16;13.80;96.20
67147;DHT22;54061;52.036;5.558;2022-09-09T03:50:49;13.80;96.40
67147;DHT22;54061;52.036;5.558;2022-09-09T03:53:16;13.80;96.90
67147;DHT22;54061;52.036;5.558;2022-09-09T03:55:44;13.80;96.40
67147;DHT22;54061;52.036;5.558;2022-09-09T03:58:11;13.80;96.40
67147;DHT22;54061;52.036;5.558;2022-09-09T04:00:37;13.80;96.20
67147;DHT22;54061;52.036;5.558;2022-09-09T04:03:09;13.80;96.30
67147;DHT22;54061;52.036;5.558;2022-09-09T04:05:34;13.80;96.40
67147;DHT22;54061;52.036;5.558;2022-09-09T04:08:00;13.80;96.30
67147;DHT22;54061;52.036;5.558;2022-09-09T04:10:26;13.80;96.30
67147;DHT22;54061;52.036;5.558;2022-09-09T04:12:52;13.70;96.10
67147;DHT22;54061;52.036;5.558;2022-09-09T04:15:18;13.70;96.10
67147;DHT22;54061;52.036;5.558;2022-09-09T04:17:44;13.80;96.00
67147;DHT22;54061;52.036;5.558;2022-09-09T04:20:09;13.70;96.20
67147;DHT22;54061;52.036;5.558;2022-09-09T04:22:37;13.80;96.10
67147;DHT22;54061;52.036;5.558;2022-09-09T04:25:05;13.80;95.70
67147;DHT22;54061;52.036;5.558;2022-09-09T04:27:31;13.80;95.70
67147;DHT22;54061;52.036;5.558;2022-09-09T04:29:57;13.80;96.10
67147;DHT22;54061;52.036;5.558;2022-09-09T04:32:22;13.80;95.70
67147;DHT22;54061;52.036;5.558;2022-09-09T04:34:48;13.80;95.90
67147;DHT22;54061;52.036;5.558;2022-09-09T04:37:14;13.80;95.80
67147;DHT22;54061;52.036;5.558;2022-09-09T04:39:40;13.80;96.10
67147;DHT22;54061;52.036;5.558;2022-09-09T04:42:05;13.90;96.10
67147;DHT22;54061;52.036;5.558;2022-09-09T04:44:31;13.90;96.20
67147;DHT22;54061;52.036;5.558;2022-09-09T04:46:56;13.90;96.00
67147;DHT22;54061;52.036;5.558;2022-09-09T04:49:22;13.90;95.90
67147;DHT22;54061;52.036;5.558;2022-09-09T04:51:50;14.00;95.90
67147;DHT22;54061;52.036;5.558;2022-09-09T04:54:16;14.00;96.30
67147;DHT22;54061;52.036;5.558;2022-09-09T04:56:41;14.00;95.90
67147;DHT22;54061;52.036;5.558;2022-09-09T04:59:08;14.00;95.90
67147;DHT22;54061;52.036;5.558;2022-09-09T05:01:35;14.00;95.20
67147;DHT22;54061;52.036;5.558;2022-09-09T05:04:02;14.10;95.50
67147;DHT22;54061;52.036;5.558;2022-09-09T05:06:28;14.00;95.90
67147;DHT22;54061;52.036;5.558;2022-09-09T05:08:56;14.00;96.00
67147;DHT22;54061;52.036;5.558;2022-09-09T05:11:27;14.10;95.70
67147;DHT22;54061;52.036;5.558;2022-09-09T05:13:54;14.00;95.80
67147;DHT22;54061;52.036;5.558;2022-09-09T05:16:20;14.10;95.40
67147;DHT22;54061;52.036;5.558;2022-09-09T05:18:46;14.10;95.30
67147;DHT22;54061;52.036;5.558;2022-09-09T05:21:13;14.10;95.70
67147;DHT22;54061;52.036;5.558;2022-09-09T05:23:38;14.10;95.80
67147;DHT22;54061;52.036;5.558;2022-09-09T05:26:05;14.10;95.90
67147;DHT22;54061;52.036;5.558;2022-09-09T05:28:31;14.20;95.80
67147;DHT22;54061;52.036;5.558;2022-09-09T05:31:07;14.20;95.60
67147;DHT22;54061;52.036;5.558;2022-09-09T05:33:34;14.20;96.50
67147;DHT22;54061;52.036;5.558;2022-09-09T05:36:05;14.20;96.60
67147;DHT22;54061;52.036;5.558;2022-09-09T05:38:31;14.30;96.90
67147;DHT22;54061;52.036;5.558;2022-09-09T05:40:58;14.30;96.30
67147;DHT22;54061;52.036;5.558;2022-09-09T05:43:25;14.30;96.20
67147;DHT22;54061;52.036;5.558;2022-09-09T05:46:05;14.30;96.70
67147;DHT22;54061;52.036;5.558;2022-09-09T05:48:32;14.40;97.20
67147;DHT22;54061;52.036;5.558;2022-09-09T05:50:59;14.40;96.10
67147;DHT22;54061;52.036;5.558;2022-09-09T05:53:28;14.40;96.00
67147;DHT22;54061;52.036;5.558;2022-09-09T05:56:02;14.50;96.20
67147;DHT22;54061;52.036;5.558;2022-09-09T05:58:29;14.50;96.70
67147;DHT22;54061;52.036;5.558;2022-09-09T06:01:04;14.50;96.10
67147;DHT22;54061;52.036;5.558;2022-09-09T06:03:30;14.60;96.00
67147;DHT22;54061;52.036;5.558;2022-09-09T06:06:01;14.60;96.00
67147;DHT22;54061;52.036;5.558;2022-09-09T06:08:27;14.70;96.70
67147;DHT22;54061;52.036;5.558;2022-09-09T06:10:52;14.70;96.10
67147;DHT22;54061;52.036;5.558;2022-09-09T06:13:18;14.80;95.90
67147;DHT22;54061;52.036;5.558;2022-09-09T06:15:51;14.80;96.30
67147;DHT22;54061;52.036;5.558;2022-09-09T06:18:17;14.90;96.50
67147;DHT22;54061;52.036;5.558;2022-09-09T06:20:56;14.90;95.90
67147;DHT22;54061;52.036;5.558;2022-09-09T06:23:22;15.00;98.30
67147;DHT22;54061;52.036;5.558;2022-09-09T06:25:47;15.00;96.70
67147;DHT22;54061;52.036;5.558;2022-09-09T06:28:14;15.10;96.10
67147;DHT22;54061;52.036;5.558;2022-09-09T06:30:40;15.10;96.10
67147;DHT22;54061;52.036;5.558;2022-09-09T06:33:06;15.20;96.40
67147;DHT22;54061;52.036;5.558;2022-09-09T06:35:32;15.20;97.10
67147;DHT22;54061;52.036;5.558;2022-09-09T06:37:57;15.20;96.30
67147;DHT22;54061;52.036;5.558;2022-09-09T06:40:24;15.30;96.50
67147;DHT22;54061;52.036;5.558;2022-09-09T06:42:49;15.30;96.80
67147;DHT22;54061;52.036;5.558;2022-09-09T06:45:15;15.40;96.60
67147;DHT22;54061;52.036;5.558;2022-09-09T06:47:41;15.40;96.30
67147;DHT22;54061;52.036;5.558;2022-09-09T06:50:07;15.50;95.90
67147;DHT22;54061;52.036;5.558;2022-09-09T06:52:33;15.60;95.60
67147;DHT22;54061;52.036;5.558;2022-09-09T06:54:59;15.60;95.90
67147;DHT22;54061;52.036;5.558;2022-09-09T06:57:24;15.60;96.20
67147;DHT22;54061;52.036;5.558;2022-09-09T06:59:50;15.60;95.80
67147;DHT22;54061;52.036;5.558;2022-09-09T07:02:15;15.60;95.90
67147;DHT22;54061;52.036;5.558;2022-09-09T07:04:41;15.70;95.80
67147;DHT22;54061;52.036;5.558;2022-09-09T07:07:07;15.70;95.60
67147;DHT22;54061;52.036;5.558;2022-09-09T07:09:35;15.80;95.80
67147;DHT22;54061;52.036;5.558;2022-09-09T07:12:00;15.80;96.10
67147;DHT22;54061;52.036;5.558;2022-09-09T07:14:26;15.90;95.60
67147;DHT22;54061;52.036;5.558;2022-09-09T07:16:52;15.90;95.80
67147;DHT22;54061;52.036;5.558;2022-09-09T07:19:18;15.90;95.50
67147;DHT22;54061;52.036;5.558;2022-09-09T07:21:43;16.10;95.90
67147;DHT22;54061;52.036;5.558;2022-09-09T07:24:10;16.10;95.50
67147;DHT22;54061;52.036;5.558;2022-09-09T07:26:37;16.10;95.30
67147;DHT22;54061;52.036;5.558;2022-09-09T07:29:03;16.20;95.50
67147;DHT22;54061;52.036;5.558;2022-09-09T07:31:34;16.30;95.10
67147;DHT22;54061;52.036;5.558;2022-09-09T07:34:01;16.30;95.20
67147;DHT22;54061;52.036;5.558;2022-09-09T07:36:31;16.40;95.20
67147;DHT22;54061;52.036;5.558;2022-09-09T07:39:06;16.50;95.70
67147;DHT22;54061;52.036;5.558;2022-09-09T07:41:35;16.40;95.70
67147;DHT22;54061;52.036;5.558;2022-09-09T07:44:22;16.30;95.50
67147;DHT22;54061;52.036;5.558;2022-09-09T07:46:48;16.40;96.40
67147;DHT22;54061;52.036;5.558;2022-09-09T07:49:14;16.40;94.80
67147;DHT22;54061;52.036;5.558;2022-09-09T07:51:43;16.40;94.70
67147;DHT22;54061;52.036;5.558;2022-09-09T07:54:10;16.60;94.70
67147;DHT22;54061;52.036;5.558;2022-09-09T07:56:37;16.60;94.80
67147;DHT22;54061;52.036;5.558;2022-09-09T07:59:03;16.60;94.40
67147;DHT22;54061;52.036;5.558;2022-09-09T08:01:39;16.60;94.50
67147;DHT22;54061;52.036;5.558;2022-09-09T08:04:09;16.60;94.70
67147;DHT22;54061;52.036;5.558;2022-09-09T08:06:39;16.60;94.30
67147;DHT22;54061;52.036;5.558;2022-09-09T08:09:06;16.50;94.20
67147;DHT22;54061;52.036;5.558;2022-09-09T08:11:31;16.50;94.40
67147;DHT22;54061;52.036;5.558;2022-09-09T08:13:58;16.40;94.00
67147;DHT22;54061;52.036;5.558;2022-09-09T08:16:30;16.40;94.30
67147;DHT22;54061;52.036;5.558;2022-09-09T08:18:56;16.50;94.50
67147;DHT22;54061;52.036;5.558;2022-09-09T08:21:28;16.50;94.30
67147;DHT22;54061;52.036;5.558;2022-09-09T08:23:55;16.60;94.20
67147;DHT22;54061;52.036;5.558;2022-09-09T08:26:23;16.70;94.10
67147;DHT22;54061;52.036;5.558;2022-09-09T08:28:54;16.80;93.90
67147;DHT22;54061;52.036;5.558;2022-09-09T08:31:42;16.80;93.60
67147;DHT22;54061;52.036;5.558;2022-09-09T08:34:08;16.80;93.70
67147;DHT22;54061;52.036;5.558;2022-09-09T08:36:38;16.80;93.40
67147;DHT22;54061;52.036;5.558;2022-09-09T08:39:05;16.80;93.70
67147;DHT22;54061;52.036;5.558;2022-09-09T08:42:00;16.90;93.50
67147;DHT22;54061;52.036;5.558;2022-09-09T08:44:57;16.80;93.50
67147;DHT22;54061;52.036;5.558;2022-09-09T08:47:48;16.80;93.90
67147;DHT22;54061;52.036;5.558;2022-09-09T08:50:28;16.80;93.80
67147;DHT22;54061;52.036;5.558;2022-09-09T08:55:53;16.80;93.30
67147;DHT22;54061;52.036;5.558;2022-09-09T08:58:29;16.90;93.50
67147;DHT22;54061;52.036;5.558;2022-09-09T09:09:55;16.90;92.80
67147;DHT22;54061;52.036;5.558;2022-09-09T09:12:28;17.00;93.10
67147;DHT22;54061;52.036;5.558;2022-09-09T09:14:55;17.00;92.70
67147;DHT22;54061;52.036;5.558;2022-09-09T09:17:25;16.90;92.60
67147;DHT22;54061;52.036;5.558;2022-09-09T09:19:53;17.00;92.30
67147;DHT22;54061;52.036;5.558;2022-09-09T09:22:26;16.90;92.50
67147;DHT22;54061;52.036;5.558;2022-09-09T09:25:26;17.00;92.50
67147;DHT22;54061;52.036;5.558;2022-09-09T09:30:50;17.00;92.40
67147;DHT22;54061;52.036;5.558;2022-09-09T09:36:12;17.10;92.40
67147;DHT22;54061;52.036;5.558;2022-09-09T09:38:52;17.10;92.30
67147;DHT22;54061;52.036;5.558;2022-09-09T09:43:57;17.20;92.30
67147;DHT22;54061;52.036;5.558;2022-09-09T09:46:24;17.20;92.10
67147;DHT22;54061;52.036;5.558;2022-09-09T09:48:58;17.30;92.00
67147;DHT22;54061;52.036;5.558;2022-09-09T09:51:24;17.30;91.90
67147;DHT22;54061;52.036;5.558;2022-09-09T09:53:50;17.30;91.80
67147;DHT22;54061;52.036;5.558;2022-09-09T09:56:26;17.30;91.80
67147;DHT22;54061;52.036;5.558;2022-09-09T09:58:53;17.30;92.20
67147;DHT22;54061;52.036;5.558;2022-09-09T10:01:36;17.30;91.90
67147;DHT22;54061;52.036;5.558;2022-09-09T10:04:14;17.40;91.90
67147;DHT22;54061;52.036;5.558;2022-09-09T10:06:41;17.40;91.70
67147;DHT22;54061;52.036;5.558;2022-09-09T10:09:28;17.30;91.50
67147;DHT22;54061;52.036;5.558;2022-09-09T10:17:36;17.30;91.20
67147;DHT22;54061;52.036;5.558;2022-09-09T10:22:36;17.30;91.30
67147;DHT22;54061;52.036;5.558;2022-09-09T10:28:07;17.30;91.20
67147;DHT22;54061;52.036;5.558;2022-09-09T10:33:16;17.40;91.10
67147;DHT22;54061;52.036;5.558;2022-09-09T10:36:12;17.30;91.10
67147;DHT22;54061;52.036;5.558;2022-09-09T10:38:45;17.40;91.70
67147;DHT22;54061;52.036;5.558;2022-09-09T10:44:10;16.60;94.70
67147;DHT22;54061;52.036;5.558;2022-09-09T10:50:05;16.20;95.90
67147;DHT22;54061;52.036;5.558;2022-09-09T10:52:39;16.20;97.30
67147;DHT22;54061;52.036;5.558;2022-09-09T10:55:14;16.10;96.30
67147;DHT22;54061;52.036;5.558;2022-09-09T10:57:47;16.10;97.20
67147;DHT22;54061;52.036;5.558;2022-09-09T11:00:24;16.10;96.50
67147;DHT22;54061;52.036;5.558;2022-09-09T11:02:58;16.20;97.10
67147;DHT22;54061;52.036;5.558;2022-09-09T11:05:43;16.30;98.00
67147;DHT22;54061;52.036;5.558;2022-09-09T11:08:14;16.50;98.10
67147;DHT22;54061;52.036;5.558;2022-09-09T11:13:49;17.00;96.30
67147;DHT22;54061;52.036;5.558;2022-09-09T11:16:52;17.30;97.60
67147;DHT22;54061;52.036;5.558;2022-09-09T11:19:38;17.30;97.30
67147;DHT22;54061;52.036;5.558;2022-09-09T11:36:00;17.30;96.40
67147;DHT22;54061;52.036;5.558;2022-09-09T11:38:39;17.60;98.20
67147;DHT22;54061;52.036;5.558;2022-09-09T11:41:09;17.70;95.90
67147;DHT22;54061;52.036;5.558;2022-09-09T11:43:49;17.90;95.80
67147;DHT22;54061;52.036;5.558;2022-09-09T11:46:21;17.80;95.40
67147;DHT22;54061;52.036;5.558;2022-09-09T11:48:59;17.80;94.90
67147;DHT22;54061;52.036;5.558;2022-09-09T11:51:30;17.70;95.40
67147;DHT22;54061;52.036;5.558;2022-09-09T11:53:57;17.70;95.50
67147;DHT22;54061;52.036;5.558;2022-09-09T11:56:32;17.60;94.70
67147;DHT22;54061;52.036;5.558;2022-09-09T11:59:16;17.60;94.80
67147;DHT22;54061;52.036;5.558;2022-09-09T12:01:45;17.50;95.50
67147;DHT22;54061;52.036;5.558;2022-09-09T12:09:45;17.50;94.80
67147;DHT22;54061;52.036;5.558;2022-09-09T12:14:58;17.40;94.70
67147;DHT22;54061;52.036;5.558;2022-09-09T12:17:27;17.50;95.10
67147;DHT22;54061;52.036;5.558;2022-09-09T12:20:13;17.30;94.80
67147;DHT22;54061;52.036;5.558;2022-09-09T12:25:59;17.10;96.50
67147;DHT22;54061;52.036;5.558;2022-09-09T12:29:13;17.10;95.40
67147;DHT22;54061;52.036;5.558;2022-09-09T12:31:44;17.10;96.00
67147;DHT22;54061;52.036;5.558;2022-09-09T12:34:30;17.10;95.20
67147;DHT22;54061;52.036;5.558;2022-09-09T12:37:46;17.20;94.90
67147;DHT22;54061;52.036;5.558;2022-09-09T12:39:57;17.30;95.10
67147;DHT22;54061;52.036;5.558;2022-09-09T12:42:23;17.40;94.80
67147;DHT22;54061;52.036;5.558;2022-09-09T12:44:53;17.40;94.40
67147;DHT22;54061;52.036;5.558;2022-09-09T12:47:21;17.40;94.50
67147;DHT22;54061;52.036;5.558;2022-09-09T12:49:49;17.50;94.30
67147;DHT22;54061;52.036;5.558;2022-09-09T12:52:31;17.50;94.30
67147;DHT22;54061;52.036;5.558;2022-09-09T12:55:00;17.60;94.50
67147;DHT22;54061;52.036;5.558;2022-09-09T12:57:30;17.60;94.20
67147;DHT22;54061;52.036;5.558;2022-09-09T13:00:15;17.60;94.20
67147;DHT22;54061;52.036;5.558;2022-09-09T13:03:02;17.50;94.10
67147;DHT22;54061;52.036;5.558;2022-09-09T13:05:35;17.50;94.30
67147;DHT22;54061;52.036;5.558;2022-09-09T13:08:03;17.50;94.10
67147;DHT22;54061;52.036;5.558;2022-09-09T13:10:31;17.50;93.80
67147;DHT22;54061;52.036;5.558;2022-09-09T13:12:59;17.50;93.80
67147;DHT22;54061;52.036;5.558;2022-09-09T13:15:27;17.50;93.70
67147;DHT22;54061;52.036;5.558;2022-09-09T13:17:56;17.60;93.80
67147;DHT22;54061;52.036;5.558;2022-09-09T13:20:23;17.60;93.80
67147;DHT22;54061;52.036;5.558;2022-09-09T13:22:51;17.60;93.50
67147;DHT22;54061;52.036;5.558;2022-09-09T13:25:27;17.60;93.50
67147;DHT22;54061;52.036;5.558;2022-09-09T13:27:59;17.70;93.70
67147;DHT22;54061;52.036;5.558;2022-09-09T13:30:32;17.70;93.50
67147;DHT22;54061;52.036;5.558;2022-09-09T13:33:02;17.80;93.60
67147;DHT22;54061;52.036;5.558;2022-09-09T13:35:28;17.80;93.30
67147;DHT22;54061;52.036;5.558;2022-09-09T13:37:54;17.90;93.30
67147;DHT22;54061;52.036;5.558;2022-09-09T13:40:22;17.90;93.10
67147;DHT22;54061;52.036;5.558;2022-09-09T13:42:52;18.00;92.80
67147;DHT22;54061;52.036;5.558;2022-09-09T13:45:22;18.00;92.70
67147;DHT22;54061;52.036;5.558;2022-09-09T13:47:49;18.10;92.70
67147;DHT22;54061;52.036;5.558;2022-09-09T13:52:50;18.20;92.60
67147;DHT22;54061;52.036;5.558;2022-09-09T13:55:19;18.20;92.60
67147;DHT22;54061;52.036;5.558;2022-09-09T13:57:54;18.20;92.60
67147;DHT22;54061;52.036;5.558;2022-09-09T14:00:21;18.30;92.50
67147;DHT22;54061;52.036;5.558;2022-09-09T14:02:48;18.30;92.30
67147;DHT22;54061;52.036;5.558;2022-09-09T14:05:15;18.30;92.30
67147;DHT22;54061;52.036;5.558;2022-09-09T14:07:42;18.30;92.00
67147;DHT22;54061;52.036;5.558;2022-09-09T14:10:08;18.30;92.10
67147;DHT22;54061;52.036;5.558;2022-09-09T14:12:34;18.30;92.10
67147;DHT22;54061;52.036;5.558;2022-09-09T14:15:01;18.40;92.10
67147;DHT22;54061;52.036;5.558;2022-09-09T14:17:28;18.40;91.80
67147;DHT22;54061;52.036;5.558;2022-09-09T14:19:55;18.30;91.70
67147;DHT22;54061;52.036;5.558;2022-09-09T14:22:21;18.30;91.70
67147;DHT22;54061;52.036;5.558;2022-09-09T14:24:47;18.40;92.00
67147;DHT22;54061;52.036;5.558;2022-09-09T14:27:13;18.60;92.00
67147;DHT22;54061;52.036;5.558;2022-09-09T14:29:39;18.80;91.40
67147;DHT22;54061;52.036;5.558;2022-09-09T14:32:04;18.90;91.90
67147;DHT22;54061;52.036;5.558;2022-09-09T14:34:30;19.00;91.40
67147;DHT22;54061;52.036;5.558;2022-09-09T14:36:57;18.90;91.60
67147;DHT22;54061;52.036;5.558;2022-09-09T14:39:23;18.90;91.70
67147;DHT22;54061;52.036;5.558;2022-09-09T14:41:48;18.90;91.80
67147;DHT22;54061;52.036;5.558;2022-09-09T14:44:14;18.90;91.80
67147;DHT22;54061;52.036;5.558;2022-09-09T14:46:41;19.00;91.70
67147;DHT22;54061;52.036;5.558;2022-09-09T14:49:07;19.10;91.80
67147;DHT22;54061;52.036;5.558;2022-09-09T14:51:33;19.10;91.40
67147;DHT22;54061;52.036;5.558;2022-09-09T14:53:59;19.10;91.40
67147;DHT22;54061;52.036;5.558;2022-09-09T14:56:27;19.20;91.50
67147;DHT22;54061;52.036;5.558;2022-09-09T14:58:54;19.20;91.40
67147;DHT22;54061;52.036;5.558;2022-09-09T15:01:20;19.40;91.40
67147;DHT22;54061;52.036;5.558;2022-09-09T15:03:52;19.50;91.10
67147;DHT22;54061;52.036;5.558;2022-09-09T15:06:18;19.60;90.90
67147;DHT22;54061;52.036;5.558;2022-09-09T15:08:45;19.70;90.80
67147;DHT22;54061;52.036;5.558;2022-09-09T15:11:12;19.50;90.70
67147;DHT22;54061;52.036;5.558;2022-09-09T15:13:39;19.30;90.60
67147;DHT22;54061;52.036;5.558;2022-09-09T15:16:19;19.30;91.00
67147;DHT22;54061;52.036;5.558;2022-09-09T15:18:45;19.30;90.80
67147;DHT22;54061;52.036;5.558;2022-09-09T15:21:13;19.40;90.90
67147;DHT22;54061;52.036;5.558;2022-09-09T15:23:39;19.30;90.10
67147;DHT22;54061;52.036;5.558;2022-09-09T15:26:05;19.30;90.70
67147;DHT22;54061;52.036;5.558;2022-09-09T15:28:32;19.20;90.60
67147;DHT22;54061;52.036;5.558;2022-09-09T15:31:12;19.10;90.60
67147;DHT22;54061;52.036;5.558;2022-09-09T15:33:52;19.00;90.90
67147;DHT22;54061;52.036;5.558;2022-09-09T15:36:25;19.00;90.30
67147;DHT22;54061;52.036;5.558;2022-09-09T15:38:52;19.00;90.70
67147;DHT22;54061;52.036;5.558;2022-09-09T15:41:19;18.90;91.00
67147;DHT22;54061;52.036;5.558;2022-09-09T15:43:55;18.90;91.20
67147;DHT22;54061;52.036;5.558;2022-09-09T15:46:34;18.90;91.00
67147;DHT22;54061;52.036;5.558;2022-09-09T15:49:09;18.90;91.20
67147;DHT22;54061;52.036;5.558;2022-09-09T15:51:36;19.00;91.30
67147;DHT22;54061;52.036;5.558;2022-09-09T15:54:03;19.10;91.10
67147;DHT22;54061;52.036;5.558;2022-09-09T15:56:29;19.10;90.80
67147;DHT22;54061;52.036;5.558;2022-09-09T15:58:59;19.20;90.60
67147;DHT22;54061;52.036;5.558;2022-09-09T16:01:26;19.30;90.40
67147;DHT22;54061;52.036;5.558;2022-09-09T16:03:52;19.30;89.30
67147;DHT22;54061;52.036;5.558;2022-09-09T16:06:20;19.30;89.60
67147;DHT22;54061;52.036;5.558;2022-09-09T16:08:48;19.20;89.30
67147;DHT22;54061;52.036;5.558;2022-09-09T16:11:21;19.10;89.40
67147;DHT22;54061;52.036;5.558;2022-09-09T16:13:48;19.00;89.20
67147;DHT22;54061;52.036;5.558;2022-09-09T16:16:16;19.00;89.70
67147;DHT22;54061;52.036;5.558;2022-09-09T16:18:46;18.90;90.00
67147;DHT22;54061;52.036;5.558;2022-09-09T16:21:18;18.80;87.40
67147;DHT22;54061;52.036;5.558;2022-09-09T16:23:44;18.70;90.00
67147;DHT22;54061;52.036;5.558;2022-09-09T16:26:12;18.70;90.10
67147;DHT22;54061;52.036;5.558;2022-09-09T16:28:39;18.70;90.10
67147;DHT22;54061;52.036;5.558;2022-09-09T16:31:08;18.70;90.30
67147;DHT22;54061;52.036;5.558;2022-09-09T16:33:35;18.70;90.20
67147;DHT22;54061;52.036;5.558;2022-09-09T16:36:11;18.70;90.20
67147;DHT22;54061;52.036;5.558;2022-09-09T16:38:38;18.70;88.50
67147;DHT22;54061;52.036;5.558;2022-09-09T16:41:04;18.60;90.10
67147;DHT22;54061;52.036;5.558;2022-09-09T16:43:31;18.50;90.30
67147;DHT22;54061;52.036;5.558;2022-09-09T16:45:57;18.50;90.40
67147;DHT22;54061;52.036;5.558;2022-09-09T16:48:26;18.40;90.40
67147;DHT22;54061;52.036;5.558;2022-09-09T16:50:52;18.40;90.50
67147;DHT22;54061;52.036;5.558;2022-09-09T16:53:18;18.50;90.50
67147;DHT22;54061;52.036;5.558;2022-09-09T16:55:44;18.50;90.50
67147;DHT22;54061;52.036;5.558;2022-09-09T16:58:12;18.50;90.50
67147;DHT22;54061;52.036;5.558;2022-09-09T17:00:38;18.50;90.70
67147;DHT22;54061;52.036;5.558;2022-09-09T17:03:03;18.50;90.60
67147;DHT22;54061;52.036;5.558;2022-09-09T17:05:29;18.40;90.40
67147;DHT22;54061;52.036;5.558;2022-09-09T17:07:55;18.30;90.70
67147;DHT22;54061;52.036;5.558;2022-09-09T17:10:23;18.40;90.80
67147;DHT22;54061;52.036;5.558;2022-09-09T17:12:49;18.40;90.80
67147;DHT22;54061;52.036;5.558;2022-09-09T17:15:15;18.30;90.80
67147;DHT22;54061;52.036;5.558;2022-09-09T17:17:41;18.30;90.90
67147;DHT22;54061;52.036;5.558;2022-09-09T17:20:09;18.30;90.90
67147;DHT22;54061;52.036;5.558;2022-09-09T17:22:35;18.30;91.00
67147;DHT22;54061;52.036;5.558;2022-09-09T17:25:00;18.30;91.00
67147;DHT22;54061;52.036;5.558;2022-09-09T17:27:26;18.30;91.00
67147;DHT22;54061;52.036;5.558;2022-09-09T17:29:51;18.20;91.10
67147;DHT22;54061;52.036;5.558;2022-09-09T17:32:17;18.20;91.10
67147;DHT22;54061;52.036;5.558;2022-09-09T17:34:43;18.20;91.10
67147;DHT22;54061;52.036;5.558;2022-09-09T17:37:10;18.10;91.10
67147;DHT22;54061;52.036;5.558;2022-09-09T17:39:35;18.10;91.10
67147;DHT22;54061;52.036;5.558;2022-09-09T17:42:01;18.10;91.00
67147;DHT22;54061;52.036;5.558;2022-09-09T17:44:26;18.00;91.00
67147;DHT22;54061;52.036;5.558;2022-09-09T17:46:53;18.00;91.00